sensor_id;sensor_type;location;lat;lon;timestamp;P1;durP1;ratioP1;P2;durP2;ratioP2
76818;SDS011;65772;51.096;17.006;2023-02-21T00:02:42;3.70;;;1.50;;
76818;SDS011;65772;51.096;17.006;2023-02-21T00:05:30;3.20;;;1.30;;
76818;SDS011;65772;51.096;17.006;2023-02-21T00:08:19;4.30;;;1.80;;
76818;SDS011;65772;51.096;17.006;2023-02-21T00:11:07;3.50;;;1.90;;
76818;SDS011;65772;51.096;17.006;2023-02-21T00:13:55;3.50;;;1.50;;
76818;SDS011;65772;51.096;17.006;2023-02-21T00:16:44;3.70;;;1.70;;
76818;SDS011;65772;51.096;17.006;2023-02-21T00:19:33;3.00;;;1.50;;
76818;SDS011;65772;51.096;17.006;2023-02-21T00:22:21;4.20;;;2.00;;
76818;SDS011;65772;51.096;17.006;2023-02-21T00:25:09;4.50;;;1.80;;
76818;SDS011;65772;51.096;17.006;2023-02-21T00:27:58;4.40;;;2.00;;
76818;SDS011;65772;51.096;17.006;2023-02-21T00:30:47;4.50;;;2.10;;
76818;SDS011;65772;51.096;17.006;2023-02-21T00:33:35;3.90;;;1.90;;
76818;SDS011;65772;51.096;17.006;2023-02-21T00:36:24;3.70;;;2.10;;
76818;SDS011;65772;51.096;17.006;2023-02-21T00:39:12;4.90;;;2.10;;
76818;SDS011;65772;51.096;17.006;2023-02-21T00:42:00;4.40;;;2.10;;
76818;SDS011;65772;51.096;17.006;2023-02-21T00:44:49;6.00;;;2.60;;
76818;SDS011;65772;51.096;17.006;2023-02-21T00:47:37;4.30;;;1.70;;
76818;SDS011;65772;51.096;17.006;2023-02-21T00:50:25;3.50;;;1.60;;
76818;SDS011;65772;51.096;17.006;2023-02-21T00:53:13;4.20;;;2.00;;
76818;SDS011;65772;51.096;17.006;2023-02-21T00:56:01;5.10;;;2.00;;
76818;SDS011;65772;51.096;17.006;2023-02-21T00:58:50;3.40;;;1.70;;
76818;SDS011;65772;51.096;17.006;2023-02-21T01:01:41;5.10;;;2.10;;
76818;SDS011;65772;51.096;17.006;2023-02-21T01:04:29;5.20;;;2.20;;
76818;SDS011;65772;51.096;17.006;2023-02-21T01:07:18;5.10;;;2.20;;
76818;SDS011;65772;51.096;17.006;2023-02-21T01:10:06;4.70;;;2.20;;
76818;SDS011;65772;51.096;17.006;2023-02-21T01:12:54;4.80;;;1.90;;
76818;SDS011;65772;51.096;17.006;2023-02-21T01:15:43;4.90;;;2.50;;
76818;SDS011;65772;51.096;17.006;2023-02-21T01:18:31;4.50;;;2.30;;
76818;SDS011;65772;51.096;17.006;2023-02-21T01:21:20;4.40;;;2.40;;
76818;SDS011;65772;51.096;17.006;2023-02-21T01:24:10;5.70;;;2.50;;
76818;SDS011;65772;51.096;17.006;2023-02-21T01:27:00;4.70;;;2.50;;
76818;SDS011;65772;51.096;17.006;2023-02-21T01:29:49;6.10;;;2.50;;
76818;SDS011;65772;51.096;17.006;2023-02-21T01:32:37;4.30;;;2.10;;
76818;SDS011;65772;51.096;17.006;2023-02-21T01:35:26;4.60;;;2.60;;
76818;SDS011;65772;51.096;17.006;2023-02-21T01:38:14;4.20;;;2.30;;
76818;SDS011;65772;51.096;17.006;2023-02-21T01:41:03;6.00;;;2.10;;
76818;SDS011;65772;51.096;17.006;2023-02-21T01:43:58;5.40;;;2.30;;
76818;SDS011;65772;51.096;17.006;2023-02-21T01:46:47;7.20;;;2.10;;
76818;SDS011;65772;51.096;17.006;2023-02-21T01:49:37;3.70;;;2.00;;
76818;SDS011;65772;51.096;17.006;2023-02-21T01:52:26;4.40;;;2.00;;
76818;SDS011;65772;51.096;17.006;2023-02-21T01:55:14;4.60;;;1.90;;
76818;SDS011;65772;51.096;17.006;2023-02-21T01:58:02;5.00;;;2.20;;
76818;SDS011;65772;51.096;17.006;2023-02-21T02:00:51;3.60;;;1.60;;
76818;SDS011;65772;51.096;17.006;2023-02-21T02:03:40;3.40;;;1.90;;
76818;SDS011;65772;51.096;17.006;2023-02-21T02:06:29;4.40;;;1.80;;
76818;SDS011;65772;51.096;17.006;2023-02-21T02:09:18;4.40;;;1.60;;
76818;SDS011;65772;51.096;17.006;2023-02-21T02:12:13;3.80;;;1.90;;
76818;SDS011;65772;51.096;17.006;2023-02-21T02:18:07;4.10;;;2.20;;
76818;SDS011;65772;51.096;17.006;2023-02-21T02:21:10;3.50;;;1.60;;
76818;SDS011;65772;51.096;17.006;2023-02-21T02:24:31;2.80;;;1.30;;
76818;SDS011;65772;51.096;17.006;2023-02-21T02:27:32;4.00;;;1.60;;
76818;SDS011;65772;51.096;17.006;2023-02-21T02:30:19;2.80;;;1.40;;
76818;SDS011;65772;51.096;17.006;2023-02-21T02:36:24;2.90;;;1.40;;
76818;SDS011;65772;51.096;17.006;2023-02-21T02:39:01;3.30;;;1.50;;
76818;SDS011;65772;51.096;17.006;2023-02-21T02:41:41;3.30;;;1.60;;
76818;SDS011;65772;51.096;17.006;2023-02-21T02:44:23;4.30;;;1.70;;
76818;SDS011;65772;51.096;17.006;2023-02-21T02:46:59;3.80;;;1.80;;
76818;SDS011;65772;51.096;17.006;2023-02-21T02:49:35;2.50;;;1.40;;
76818;SDS011;65772;51.096;17.006;2023-02-21T02:52:10;8.90;;;2.30;;
76818;SDS011;65772;51.096;17.006;2023-02-21T02:54:40;2.70;;;1.30;;
76818;SDS011;65772;51.096;17.006;2023-02-21T02:57:10;2.80;;;1.40;;
76818;SDS011;65772;51.096;17.006;2023-02-21T02:59:42;3.70;;;1.40;;
76818;SDS011;65772;51.096;17.006;2023-02-21T03:02:22;3.00;;;1.30;;
76818;SDS011;65772;51.096;17.006;2023-02-21T03:05:12;2.30;;;1.20;;
76818;SDS011;65772;51.096;17.006;2023-02-21T03:07:52;2.50;;;1.10;;
76818;SDS011;65772;51.096;17.006;2023-02-21T03:10:34;3.10;;;1.40;;
76818;SDS011;65772;51.096;17.006;2023-02-21T03:13:15;3.50;;;1.50;;
76818;SDS011;65772;51.096;17.006;2023-02-21T03:15:51;3.20;;;1.70;;
76818;SDS011;65772;51.096;17.006;2023-02-21T03:18:25;2.70;;;1.20;;
76818;SDS011;65772;51.096;17.006;2023-02-21T03:21:02;2.80;;;1.40;;
76818;SDS011;65772;51.096;17.006;2023-02-21T03:23:35;2.70;;;1.50;;
76818;SDS011;65772;51.096;17.006;2023-02-21T03:26:07;4.30;;;1.60;;
76818;SDS011;65772;51.096;17.006;2023-02-21T03:28:44;3.10;;;1.80;;
76818;SDS011;65772;51.096;17.006;2023-02-21T03:31:18;2.90;;;1.40;;
76818;SDS011;65772;51.096;17.006;2023-02-21T03:33:52;4.50;;;2.10;;
76818;SDS011;65772;51.096;17.006;2023-02-21T03:36:23;4.00;;;1.20;;
76818;SDS011;65772;51.096;17.006;2023-02-21T03:38:56;3.30;;;1.40;;
76818;SDS011;65772;51.096;17.006;2023-02-21T03:41:27;4.00;;;1.90;;
76818;SDS011;65772;51.096;17.006;2023-02-21T03:43:57;3.30;;;1.60;;
76818;SDS011;65772;51.096;17.006;2023-02-21T03:46:28;2.60;;;1.40;;
76818;SDS011;65772;51.096;17.006;2023-02-21T03:48:59;4.40;;;1.50;;
76818;SDS011;65772;51.096;17.006;2023-02-21T03:51:30;5.90;;;1.70;;
76818;SDS011;65772;51.096;17.006;2023-02-21T03:54:00;3.40;;;1.60;;
76818;SDS011;65772;51.096;17.006;2023-02-21T03:56:37;3.10;;;1.70;;
76818;SDS011;65772;51.096;17.006;2023-02-21T03:59:24;3.40;;;1.70;;
76818;SDS011;65772;51.096;17.006;2023-02-21T04:01:55;4.00;;;1.90;;
76818;SDS011;65772;51.096;17.006;2023-02-21T04:04:28;5.30;;;2.20;;
76818;SDS011;65772;51.096;17.006;2023-02-21T04:07:06;4.30;;;2.20;;
76818;SDS011;65772;51.096;17.006;2023-02-21T04:09:38;4.80;;;2.00;;
76818;SDS011;65772;51.096;17.006;2023-02-21T04:12:11;4.30;;;2.10;;
76818;SDS011;65772;51.096;17.006;2023-02-21T04:14:41;4.60;;;2.30;;
76818;SDS011;65772;51.096;17.006;2023-02-21T04:17:12;4.30;;;2.30;;
76818;SDS011;65772;51.096;17.006;2023-02-21T04:19:44;4.70;;;2.50;;
76818;SDS011;65772;51.096;17.006;2023-02-21T04:22:14;5.50;;;2.10;;
76818;SDS011;65772;51.096;17.006;2023-02-21T04:24:45;5.00;;;2.40;;
76818;SDS011;65772;51.096;17.006;2023-02-21T04:27:16;5.80;;;2.30;;
76818;SDS011;65772;51.096;17.006;2023-02-21T04:29:53;8.20;;;2.60;;
76818;SDS011;65772;51.096;17.006;2023-02-21T04:32:23;5.50;;;1.90;;
76818;SDS011;65772;51.096;17.006;2023-02-21T04:34:54;4.80;;;2.50;;
76818;SDS011;65772;51.096;17.006;2023-02-21T04:37:25;4.20;;;2.10;;
76818;SDS011;65772;51.096;17.006;2023-02-21T04:39:57;4.60;;;3.10;;
76818;SDS011;65772;51.096;17.006;2023-02-21T04:42:30;4.30;;;2.10;;
76818;SDS011;65772;51.096;17.006;2023-02-21T04:45:02;9.80;;;4.80;;
76818;SDS011;65772;51.096;17.006;2023-02-21T04:47:33;4.40;;;2.30;;
76818;SDS011;65772;51.096;17.006;2023-02-21T04:50:04;6.70;;;2.60;;
76818;SDS011;65772;51.096;17.006;2023-02-21T04:52:35;5.30;;;2.60;;
76818;SDS011;65772;51.096;17.006;2023-02-21T04:57:36;5.00;;;2.60;;
76818;SDS011;65772;51.096;17.006;2023-02-21T05:00:08;5.00;;;2.70;;
76818;SDS011;65772;51.096;17.006;2023-02-21T05:02:42;5.90;;;3.30;;
76818;SDS011;65772;51.096;17.006;2023-02-21T05:05:14;5.20;;;3.00;;
76818;SDS011;65772;51.096;17.006;2023-02-21T05:07:44;4.90;;;2.50;;
76818;SDS011;65772;51.096;17.006;2023-02-21T05:10:15;5.10;;;2.60;;
76818;SDS011;65772;51.096;17.006;2023-02-21T05:12:46;5.30;;;3.00;;
76818;SDS011;65772;51.096;17.006;2023-02-21T05:15:17;5.30;;;2.70;;
76818;SDS011;65772;51.096;17.006;2023-02-21T05:17:48;5.10;;;3.20;;
76818;SDS011;65772;51.096;17.006;2023-02-21T05:20:19;5.50;;;2.70;;
76818;SDS011;65772;51.096;17.006;2023-02-21T05:22:49;6.70;;;3.00;;
76818;SDS011;65772;51.096;17.006;2023-02-21T05:25:24;8.20;;;4.20;;
76818;SDS011;65772;51.096;17.006;2023-02-21T05:27:54;5.20;;;3.00;;
76818;SDS011;65772;51.096;17.006;2023-02-21T05:30:25;6.70;;;3.10;;
76818;SDS011;65772;51.096;17.006;2023-02-21T05:32:55;5.90;;;3.30;;
76818;SDS011;65772;51.096;17.006;2023-02-21T05:35:27;5.90;;;3.20;;
76818;SDS011;65772;51.096;17.006;2023-02-21T05:37:57;6.90;;;3.30;;
76818;SDS011;65772;51.096;17.006;2023-02-21T05:40:28;5.20;;;3.00;;
76818;SDS011;65772;51.096;17.006;2023-02-21T05:42:59;5.30;;;2.90;;
76818;SDS011;65772;51.096;17.006;2023-02-21T05:45:29;6.70;;;3.70;;
76818;SDS011;65772;51.096;17.006;2023-02-21T05:47:59;5.90;;;3.30;;
76818;SDS011;65772;51.096;17.006;2023-02-21T05:50:30;6.70;;;3.40;;
76818;SDS011;65772;51.096;17.006;2023-02-21T05:53:01;6.30;;;3.20;;
76818;SDS011;65772;51.096;17.006;2023-02-21T05:55:31;7.10;;;3.40;;
76818;SDS011;65772;51.096;17.006;2023-02-21T05:58:01;6.20;;;3.30;;
76818;SDS011;65772;51.096;17.006;2023-02-21T06:00:32;6.60;;;3.90;;
76818;SDS011;65772;51.096;17.006;2023-02-21T06:03:03;6.20;;;3.40;;
76818;SDS011;65772;51.096;17.006;2023-02-21T06:05:35;5.50;;;2.90;;
76818;SDS011;65772;51.096;17.006;2023-02-21T06:08:06;7.30;;;3.40;;
76818;SDS011;65772;51.096;17.006;2023-02-21T06:10:40;5.10;;;3.10;;
76818;SDS011;65772;51.096;17.006;2023-02-21T06:13:10;5.80;;;3.00;;
76818;SDS011;65772;51.096;17.006;2023-02-21T06:15:41;5.50;;;3.20;;
76818;SDS011;65772;51.096;17.006;2023-02-21T06:18:12;6.20;;;3.50;;
76818;SDS011;65772;51.096;17.006;2023-02-21T06:20:43;6.00;;;3.70;;
76818;SDS011;65772;51.096;17.006;2023-02-21T06:23:14;5.10;;;3.30;;
76818;SDS011;65772;51.096;17.006;2023-02-21T06:25:44;6.50;;;3.40;;
76818;SDS011;65772;51.096;17.006;2023-02-21T06:28:15;6.80;;;3.20;;
76818;SDS011;65772;51.096;17.006;2023-02-21T06:30:46;6.30;;;3.50;;
76818;SDS011;65772;51.096;17.006;2023-02-21T06:33:16;6.90;;;3.80;;
76818;SDS011;65772;51.096;17.006;2023-02-21T06:35:47;5.50;;;3.50;;
76818;SDS011;65772;51.096;17.006;2023-02-21T06:38:17;6.40;;;3.80;;
76818;SDS011;65772;51.096;17.006;2023-02-21T06:40:48;6.10;;;3.80;;
76818;SDS011;65772;51.096;17.006;2023-02-21T06:43:18;6.20;;;3.80;;
76818;SDS011;65772;51.096;17.006;2023-02-21T06:45:49;6.70;;;4.20;;
76818;SDS011;65772;51.096;17.006;2023-02-21T06:48:19;6.90;;;3.10;;
76818;SDS011;65772;51.096;17.006;2023-02-21T06:50:50;7.00;;;3.70;;
76818;SDS011;65772;51.096;17.006;2023-02-21T06:53:20;6.70;;;3.30;;
76818;SDS011;65772;51.096;17.006;2023-02-21T06:55:51;5.90;;;3.40;;
76818;SDS011;65772;51.096;17.006;2023-02-21T06:58:21;7.20;;;3.60;;
76818;SDS011;65772;51.096;17.006;2023-02-21T07:00:52;6.10;;;3.40;;
76818;SDS011;65772;51.096;17.006;2023-02-21T07:03:25;5.60;;;3.80;;
76818;SDS011;65772;51.096;17.006;2023-02-21T07:05:56;6.40;;;4.20;;
76818;SDS011;65772;51.096;17.006;2023-02-21T07:08:26;6.50;;;4.10;;
76818;SDS011;65772;51.096;17.006;2023-02-21T07:10:56;6.30;;;4.20;;
76818;SDS011;65772;51.096;17.006;2023-02-21T07:13:27;6.90;;;3.90;;
76818;SDS011;65772;51.096;17.006;2023-02-21T07:15:58;7.20;;;4.40;;
76818;SDS011;65772;51.096;17.006;2023-02-21T07:18:28;5.50;;;3.50;;
76818;SDS011;65772;51.096;17.006;2023-02-21T07:20:59;6.50;;;4.30;;
76818;SDS011;65772;51.096;17.006;2023-02-21T07:23:30;7.70;;;4.60;;
76818;SDS011;65772;51.096;17.006;2023-02-21T07:26:00;9.20;;;4.50;;
76818;SDS011;65772;51.096;17.006;2023-02-21T07:28:30;7.80;;;4.20;;
76818;SDS011;65772;51.096;17.006;2023-02-21T07:31:01;6.80;;;4.30;;
76818;SDS011;65772;51.096;17.006;2023-02-21T07:33:32;7.90;;;4.40;;
76818;SDS011;65772;51.096;17.006;2023-02-21T07:36:03;7.60;;;4.20;;
76818;SDS011;65772;51.096;17.006;2023-02-21T07:38:35;7.90;;;4.60;;
76818;SDS011;65772;51.096;17.006;2023-02-21T07:41:05;6.50;;;3.90;;
76818;SDS011;65772;51.096;17.006;2023-02-21T07:43:36;8.60;;;4.30;;
76818;SDS011;65772;51.096;17.006;2023-02-21T07:46:09;6.30;;;4.00;;
76818;SDS011;65772;51.096;17.006;2023-02-21T07:48:40;6.40;;;3.80;;
76818;SDS011;65772;51.096;17.006;2023-02-21T07:51:11;5.80;;;3.50;;
76818;SDS011;65772;51.096;17.006;2023-02-21T07:53:41;7.80;;;4.30;;
76818;SDS011;65772;51.096;17.006;2023-02-21T07:56:12;7.10;;;4.00;;
76818;SDS011;65772;51.096;17.006;2023-02-21T07:58:43;6.40;;;3.60;;
76818;SDS011;65772;51.096;17.006;2023-02-21T08:01:13;6.30;;;3.70;;
76818;SDS011;65772;51.096;17.006;2023-02-21T08:03:44;6.10;;;3.00;;
76818;SDS011;65772;51.096;17.006;2023-02-21T08:06:14;5.80;;;3.00;;
76818;SDS011;65772;51.096;17.006;2023-02-21T08:08:45;7.10;;;3.80;;
76818;SDS011;65772;51.096;17.006;2023-02-21T08:11:16;7.00;;;3.80;;
76818;SDS011;65772;51.096;17.006;2023-02-21T08:13:46;5.30;;;2.90;;
76818;SDS011;65772;51.096;17.006;2023-02-21T08:16:17;5.10;;;2.90;;
76818;SDS011;65772;51.096;17.006;2023-02-21T08:18:47;6.60;;;3.80;;
76818;SDS011;65772;51.096;17.006;2023-02-21T08:21:18;6.00;;;2.90;;
76818;SDS011;65772;51.096;17.006;2023-02-21T08:23:49;4.90;;;3.00;;
76818;SDS011;65772;51.096;17.006;2023-02-21T08:26:22;6.10;;;3.30;;
76818;SDS011;65772;51.096;17.006;2023-02-21T08:28:52;4.70;;;2.40;;
76818;SDS011;65772;51.096;17.006;2023-02-21T08:31:23;5.40;;;2.60;;
76818;SDS011;65772;51.096;17.006;2023-02-21T08:33:53;5.70;;;2.60;;
76818;SDS011;65772;51.096;17.006;2023-02-21T08:36:30;5.30;;;2.50;;
76818;SDS011;65772;51.096;17.006;2023-02-21T08:39:02;5.50;;;3.00;;
76818;SDS011;65772;51.096;17.006;2023-02-21T08:41:37;4.80;;;2.80;;
76818;SDS011;65772;51.096;17.006;2023-02-21T08:44:10;5.30;;;2.60;;
76818;SDS011;65772;51.096;17.006;2023-02-21T08:46:43;5.80;;;2.50;;
76818;SDS011;65772;51.096;17.006;2023-02-21T08:49:16;3.40;;;1.90;;
76818;SDS011;65772;51.096;17.006;2023-02-21T08:51:47;4.60;;;2.50;;
76818;SDS011;65772;51.096;17.006;2023-02-21T08:54:17;4.60;;;2.30;;
76818;SDS011;65772;51.096;17.006;2023-02-21T08:56:47;3.90;;;2.30;;
76818;SDS011;65772;51.096;17.006;2023-02-21T08:59:18;3.70;;;2.20;;
76818;SDS011;65772;51.096;17.006;2023-02-21T09:01:49;4.00;;;2.40;;
76818;SDS011;65772;51.096;17.006;2023-02-21T09:04:19;3.60;;;1.90;;
76818;SDS011;65772;51.096;17.006;2023-02-21T09:06:51;3.50;;;1.90;;
76818;SDS011;65772;51.096;17.006;2023-02-21T09:09:21;3.80;;;1.90;;
76818;SDS011;65772;51.096;17.006;2023-02-21T09:11:52;4.80;;;2.30;;
76818;SDS011;65772;51.096;17.006;2023-02-21T09:14:22;4.50;;;2.30;;
76818;SDS011;65772;51.096;17.006;2023-02-21T09:16:53;3.50;;;2.00;;
76818;SDS011;65772;51.096;17.006;2023-02-21T09:19:23;3.60;;;2.00;;
76818;SDS011;65772;51.096;17.006;2023-02-21T09:21:54;4.00;;;2.20;;
76818;SDS011;65772;51.096;17.006;2023-02-21T09:24:28;4.30;;;2.10;;
76818;SDS011;65772;51.096;17.006;2023-02-21T09:26:59;3.60;;;1.70;;
76818;SDS011;65772;51.096;17.006;2023-02-21T09:29:31;3.20;;;1.80;;
76818;SDS011;65772;51.096;17.006;2023-02-21T09:32:13;3.70;;;2.00;;
76818;SDS011;65772;51.096;17.006;2023-02-21T09:34:43;4.50;;;1.80;;
76818;SDS011;65772;51.096;17.006;2023-02-21T09:37:14;3.20;;;1.70;;
76818;SDS011;65772;51.096;17.006;2023-02-21T09:39:44;3.70;;;1.70;;
76818;SDS011;65772;51.096;17.006;2023-02-21T09:42:15;3.20;;;1.70;;
76818;SDS011;65772;51.096;17.006;2023-02-21T09:47:18;3.70;;;1.80;;
76818;SDS011;65772;51.096;17.006;2023-02-21T09:49:56;3.10;;;1.70;;
76818;SDS011;65772;51.096;17.006;2023-02-21T09:52:31;3.50;;;1.90;;
76818;SDS011;65772;51.096;17.006;2023-02-21T09:55:07;3.70;;;2.00;;
76818;SDS011;65772;51.096;17.006;2023-02-21T09:57:42;3.50;;;1.90;;
76818;SDS011;65772;51.096;17.006;2023-02-21T10:00:17;3.20;;;1.70;;
76818;SDS011;65772;51.096;17.006;2023-02-21T10:02:53;3.70;;;2.00;;
76818;SDS011;65772;51.096;17.006;2023-02-21T10:05:38;3.60;;;1.60;;
76818;SDS011;65772;51.096;17.006;2023-02-21T10:08:16;4.70;;;2.00;;
76818;SDS011;65772;51.096;17.006;2023-02-21T10:10:53;4.40;;;2.00;;
76818;SDS011;65772;51.096;17.006;2023-02-21T10:13:33;3.90;;;2.00;;
76818;SDS011;65772;51.096;17.006;2023-02-21T10:16:10;3.60;;;1.80;;
76818;SDS011;65772;51.096;17.006;2023-02-21T10:18:46;3.50;;;2.00;;
76818;SDS011;65772;51.096;17.006;2023-02-21T10:21:23;3.90;;;2.10;;
76818;SDS011;65772;51.096;17.006;2023-02-21T10:23:56;4.30;;;2.40;;
76818;SDS011;65772;51.096;17.006;2023-02-21T10:26:33;4.10;;;2.20;;
76818;SDS011;65772;51.096;17.006;2023-02-21T10:31:45;4.70;;;1.80;;
76818;SDS011;65772;51.096;17.006;2023-02-21T10:34:21;3.30;;;1.80;;
76818;SDS011;65772;51.096;17.006;2023-02-21T10:36:54;3.30;;;1.70;;
76818;SDS011;65772;51.096;17.006;2023-02-21T10:39:33;3.30;;;1.40;;
76818;SDS011;65772;51.096;17.006;2023-02-21T10:42:10;3.10;;;1.60;;
76818;SDS011;65772;51.096;17.006;2023-02-21T10:44:58;3.50;;;1.70;;
76818;SDS011;65772;51.096;17.006;2023-02-21T10:47:32;3.70;;;1.90;;
76818;SDS011;65772;51.096;17.006;2023-02-21T10:50:15;3.50;;;1.80;;
76818;SDS011;65772;51.096;17.006;2023-02-21T10:53:06;2.90;;;1.50;;
76818;SDS011;65772;51.096;17.006;2023-02-21T10:55:56;3.40;;;1.50;;
76818;SDS011;65772;51.096;17.006;2023-02-21T10:58:36;2.40;;;1.20;;
76818;SDS011;65772;51.096;17.006;2023-02-21T11:01:11;3.70;;;2.00;;
76818;SDS011;65772;51.096;17.006;2023-02-21T11:03:46;3.20;;;2.00;;
76818;SDS011;65772;51.096;17.006;2023-02-21T11:06:22;3.90;;;2.00;;
76818;SDS011;65772;51.096;17.006;2023-02-21T11:08:55;4.60;;;2.20;;
76818;SDS011;65772;51.096;17.006;2023-02-21T11:11:33;3.90;;;2.40;;
76818;SDS011;65772;51.096;17.006;2023-02-21T11:14:11;3.70;;;1.90;;
76818;SDS011;65772;51.096;17.006;2023-02-21T11:19:44;3.90;;;2.10;;
76818;SDS011;65772;51.096;17.006;2023-02-21T11:22:17;4.10;;;2.20;;
76818;SDS011;65772;51.096;17.006;2023-02-21T11:24:52;3.50;;;1.90;;
76818;SDS011;65772;51.096;17.006;2023-02-21T11:27:28;4.40;;;2.20;;
76818;SDS011;65772;51.096;17.006;2023-02-21T11:30:01;3.10;;;1.70;;
76818;SDS011;65772;51.096;17.006;2023-02-21T11:32:49;3.00;;;1.30;;
76818;SDS011;65772;51.096;17.006;2023-02-21T11:35:24;2.80;;;1.30;;
76818;SDS011;65772;51.096;17.006;2023-02-21T11:37:57;3.30;;;1.70;;
76818;SDS011;65772;51.096;17.006;2023-02-21T11:40:31;2.90;;;1.40;;
76818;SDS011;65772;51.096;17.006;2023-02-21T11:43:15;4.10;;;1.70;;
76818;SDS011;65772;51.096;17.006;2023-02-21T11:45:54;3.10;;;1.60;;
76818;SDS011;65772;51.096;17.006;2023-02-21T11:48:30;2.80;;;1.40;;
76818;SDS011;65772;51.096;17.006;2023-02-21T11:51:07;3.00;;;1.50;;
76818;SDS011;65772;51.096;17.006;2023-02-21T11:53:46;3.30;;;1.60;;
76818;SDS011;65772;51.096;17.006;2023-02-21T11:56:19;3.10;;;1.30;;
76818;SDS011;65772;51.096;17.006;2023-02-21T11:59:00;2.00;;;1.00;;
76818;SDS011;65772;51.096;17.006;2023-02-21T12:01:39;2.40;;;1.20;;
76818;SDS011;65772;51.096;17.006;2023-02-21T12:04:31;3.00;;;1.30;;
76818;SDS011;65772;51.096;17.006;2023-02-21T12:07:18;2.30;;;1.10;;
76818;SDS011;65772;51.096;17.006;2023-02-21T12:10:00;3.00;;;1.40;;
76818;SDS011;65772;51.096;17.006;2023-02-21T12:12:51;2.20;;;1.20;;
76818;SDS011;65772;51.096;17.006;2023-02-21T12:15:29;3.00;;;1.40;;
76818;SDS011;65772;51.096;17.006;2023-02-21T12:21:18;3.10;;;1.50;;
76818;SDS011;65772;51.096;17.006;2023-02-21T12:24:04;2.40;;;1.20;;
76818;SDS011;65772;51.096;17.006;2023-02-21T12:26:46;2.70;;;1.40;;
76818;SDS011;65772;51.096;17.006;2023-02-21T12:29:33;3.60;;;1.40;;
76818;SDS011;65772;51.096;17.006;2023-02-21T12:32:35;1.80;;;0.90;;
76818;SDS011;65772;51.096;17.006;2023-02-21T12:38:18;2.60;;;1.30;;
76818;SDS011;65772;51.096;17.006;2023-02-21T12:41:00;2.50;;;1.20;;
76818;SDS011;65772;51.096;17.006;2023-02-21T12:43:45;2.50;;;1.30;;
76818;SDS011;65772;51.096;17.006;2023-02-21T12:46:26;2.70;;;1.10;;
76818;SDS011;65772;51.096;17.006;2023-02-21T12:49:01;3.30;;;1.30;;
76818;SDS011;65772;51.096;17.006;2023-02-21T12:51:35;2.70;;;1.20;;
76818;SDS011;65772;51.096;17.006;2023-02-21T12:54:11;2.70;;;1.00;;
76818;SDS011;65772;51.096;17.006;2023-02-21T12:56:47;2.40;;;1.10;;
76818;SDS011;65772;51.096;17.006;2023-02-21T12:59:25;2.80;;;1.20;;
76818;SDS011;65772;51.096;17.006;2023-02-21T13:02:03;2.30;;;1.00;;
76818;SDS011;65772;51.096;17.006;2023-02-21T13:04:43;2.80;;;1.30;;
76818;SDS011;65772;51.096;17.006;2023-02-21T13:07:22;2.60;;;1.10;;
76818;SDS011;65772;51.096;17.006;2023-02-21T13:10:01;2.10;;;1.00;;
76818;SDS011;65772;51.096;17.006;2023-02-21T13:12:36;3.70;;;1.10;;
76818;SDS011;65772;51.096;17.006;2023-02-21T13:15:15;2.00;;;1.00;;
76818;SDS011;65772;51.096;17.006;2023-02-21T13:17:50;2.30;;;0.90;;
76818;SDS011;65772;51.096;17.006;2023-02-21T13:20:29;2.50;;;1.20;;
76818;SDS011;65772;51.096;17.006;2023-02-21T13:23:05;3.60;;;1.20;;
76818;SDS011;65772;51.096;17.006;2023-02-21T13:26:21;2.60;;;0.90;;
76818;SDS011;65772;51.096;17.006;2023-02-21T13:29:20;3.00;;;1.00;;
76818;SDS011;65772;51.096;17.006;2023-02-21T13:31:57;2.40;;;1.10;;
76818;SDS011;65772;51.096;17.006;2023-02-21T13:34:29;2.20;;;1.00;;
76818;SDS011;65772;51.096;17.006;2023-02-21T13:37:06;4.00;;;1.20;;
76818;SDS011;65772;51.096;17.006;2023-02-21T13:39:48;2.80;;;1.10;;
76818;SDS011;65772;51.096;17.006;2023-02-21T13:42:22;2.50;;;1.10;;
76818;SDS011;65772;51.096;17.006;2023-02-21T13:50:51;2.60;;;1.20;;
76818;SDS011;65772;51.096;17.006;2023-02-21T14:05:01;2.70;;;1.30;;
76818;SDS011;65772;51.096;17.006;2023-02-21T14:07:41;1.90;;;1.00;;
76818;SDS011;65772;51.096;17.006;2023-02-21T14:10:22;3.00;;;1.10;;
76818;SDS011;65772;51.096;17.006;2023-02-21T14:12:56;2.30;;;1.10;;
76818;SDS011;65772;51.096;17.006;2023-02-21T14:15:36;2.70;;;1.30;;
76818;SDS011;65772;51.096;17.006;2023-02-21T14:18:18;1.90;;;1.00;;
76818;SDS011;65772;51.096;17.006;2023-02-21T14:20:55;2.00;;;0.90;;
76818;SDS011;65772;51.096;17.006;2023-02-21T14:23:33;2.50;;;1.10;;
76818;SDS011;65772;51.096;17.006;2023-02-21T14:26:31;2.30;;;1.10;;
76818;SDS011;65772;51.096;17.006;2023-02-21T14:29:13;3.20;;;1.40;;
76818;SDS011;65772;51.096;17.006;2023-02-21T14:32:14;3.10;;;1.60;;
76818;SDS011;65772;51.096;17.006;2023-02-21T14:35:19;3.70;;;1.80;;
76818;SDS011;65772;51.096;17.006;2023-02-21T14:37:56;2.30;;;1.30;;
76818;SDS011;65772;51.096;17.006;2023-02-21T14:40:32;3.20;;;1.40;;
76818;SDS011;65772;51.096;17.006;2023-02-21T14:43:14;2.70;;;1.40;;
76818;SDS011;65772;51.096;17.006;2023-02-21T14:46:02;2.90;;;1.60;;
76818;SDS011;65772;51.096;17.006;2023-02-21T14:49:06;3.60;;;1.60;;
76818;SDS011;65772;51.096;17.006;2023-02-21T14:52:12;3.10;;;1.70;;
76818;SDS011;65772;51.096;17.006;2023-02-21T14:54:59;3.80;;;1.90;;
76818;SDS011;65772;51.096;17.006;2023-02-21T14:57:52;4.20;;;1.70;;
76818;SDS011;65772;51.096;17.006;2023-02-21T15:00:38;3.40;;;1.40;;
76818;SDS011;65772;51.096;17.006;2023-02-21T15:03:20;2.90;;;1.50;;
76818;SDS011;65772;51.096;17.006;2023-02-21T15:05:58;2.20;;;1.10;;
76818;SDS011;65772;51.096;17.006;2023-02-21T15:08:40;2.60;;;1.10;;
76818;SDS011;65772;51.096;17.006;2023-02-21T15:11:17;2.60;;;1.30;;
76818;SDS011;65772;51.096;17.006;2023-02-21T15:16:51;2.20;;;1.10;;
76818;SDS011;65772;51.096;17.006;2023-02-21T15:19:26;2.50;;;1.30;;
76818;SDS011;65772;51.096;17.006;2023-02-21T15:22:19;4.90;;;1.80;;
76818;SDS011;65772;51.096;17.006;2023-02-21T15:24:57;2.60;;;1.20;;
76818;SDS011;65772;51.096;17.006;2023-02-21T15:27:51;2.50;;;1.00;;
76818;SDS011;65772;51.096;17.006;2023-02-21T15:30:37;2.50;;;1.10;;
76818;SDS011;65772;51.096;17.006;2023-02-21T15:33:13;2.00;;;0.90;;
76818;SDS011;65772;51.096;17.006;2023-02-21T15:35:49;3.00;;;1.50;;
76818;SDS011;65772;51.096;17.006;2023-02-21T15:38:25;4.60;;;1.50;;
76818;SDS011;65772;51.096;17.006;2023-02-21T15:41:01;2.90;;;1.30;;
76818;SDS011;65772;51.096;17.006;2023-02-21T15:43:38;4.80;;;2.10;;
76818;SDS011;65772;51.096;17.006;2023-02-21T15:46:15;4.20;;;2.40;;
76818;SDS011;65772;51.096;17.006;2023-02-21T15:48:50;3.50;;;1.80;;
76818;SDS011;65772;51.096;17.006;2023-02-21T15:51:24;4.20;;;2.00;;
76818;SDS011;65772;51.096;17.006;2023-02-21T15:54:10;4.00;;;1.90;;
76818;SDS011;65772;51.096;17.006;2023-02-21T15:57:03;3.30;;;1.60;;
76818;SDS011;65772;51.096;17.006;2023-02-21T15:59:55;4.10;;;1.70;;
76818;SDS011;65772;51.096;17.006;2023-02-21T16:02:44;3.90;;;1.50;;
76818;SDS011;65772;51.096;17.006;2023-02-21T16:05:25;3.30;;;1.40;;
76818;SDS011;65772;51.096;17.006;2023-02-21T16:08:00;3.90;;;1.50;;
76818;SDS011;65772;51.096;17.006;2023-02-21T16:10:32;3.90;;;1.40;;
76818;SDS011;65772;51.096;17.006;2023-02-21T16:13:02;4.30;;;1.50;;
76818;SDS011;65772;51.096;17.006;2023-02-21T16:15:34;3.10;;;1.40;;
76818;SDS011;65772;51.096;17.006;2023-02-21T16:18:08;4.30;;;1.20;;
76818;SDS011;65772;51.096;17.006;2023-02-21T16:20:44;3.90;;;1.40;;